sensor_id;sensor_type;location;lat;lon;timestamp;pressure;altitude;pressure_sealevel;temperature;humidity
6778;BME280;3426;52.244;10.534;2022-10-31T00:00:47;101076.13;;;17.00;68.60
6778;BME280;3426;52.244;10.534;2022-10-31T00:03:16;101080.41;;;17.02;68.89
6778;BME280;3426;52.244;10.534;2022-10-31T00:05:47;101080.84;;;16.96;69.39
6778;BME280;3426;52.244;10.534;2022-10-31T00:08:15;101078.59;;;16.90;69.57
6778;BME280;3426;52.244;10.534;2022-10-31T00:10:42;101088.38;;;16.91;69.21
6778;BME280;3426;52.244;10.534;2022-10-31T00:13:10;101081.78;;;16.95;68.99
6778;BME280;3426;52.244;10.534;2022-10-31T00:15:38;101078.19;;;16.96;68.89
6778;BME280;3426;52.244;10.534;2022-10-31T00:18:06;101081.06;;;16.93;68.69
6778;BME280;3426;52.244;10.534;2022-10-31T00:20:33;101083.28;;;16.99;68.61
6778;BME280;3426;52.244;10.534;2022-10-31T00:23:01;101080.94;;;16.94;68.31
6778;BME280;3426;52.244;10.534;2022-10-31T00:25:28;101085.25;;;16.97;68.27
6778;BME280;3426;52.244;10.534;2022-10-31T00:27:55;101088.88;;;16.96;68.42
6778;BME280;3426;52.244;10.534;2022-10-31T00:30:22;101091.03;;;16.91;68.48
6778;BME280;3426;52.244;10.534;2022-10-31T00:32:49;101092.09;;;16.88;68.44
6778;BME280;3426;52.244;10.534;2022-10-31T00:35:15;101095.34;;;16.81;68.82
6778;BME280;3426;52.244;10.534;2022-10-31T00:37:42;101095.81;;;16.75;69.10
6778;BME280;3426;52.244;10.534;2022-10-31T00:40:09;101103.72;;;16.63;69.47
6778;BME280;3426;52.244;10.534;2022-10-31T00:42:36;101104.16;;;16.57;69.51
6778;BME280;3426;52.244;10.534;2022-10-31T00:45:02;101101.50;;;16.57;69.82
6778;BME280;3426;52.244;10.534;2022-10-31T00:47:29;101107.63;;;16.47;70.36
6778;BME280;3426;52.244;10.534;2022-10-31T00:49:55;101107.63;;;16.47;70.20
6778;BME280;3426;52.244;10.534;2022-10-31T00:52:22;101101.63;;;16.43;70.03
6778;BME280;3426;52.244;10.534;2022-10-31T00:54:49;101111.03;;;16.36;69.99
6778;BME280;3426;52.244;10.534;2022-10-31T00:57:15;101109.34;;;16.35;70.98
6778;BME280;3426;52.244;10.534;2022-10-31T00:59:42;101111.47;;;16.30;70.48
6778;BME280;3426;52.244;10.534;2022-10-31T01:02:08;101107.84;;;16.31;70.68
6778;BME280;3426;52.244;10.534;2022-10-31T01:04:35;101118.66;;;16.29;70.53
6778;BME280;3426;52.244;10.534;2022-10-31T01:07:01;101114.47;;;16.25;70.79
6778;BME280;3426;52.244;10.534;2022-10-31T01:09:28;101118.25;;;16.23;70.54
6778;BME280;3426;52.244;10.534;2022-10-31T01:11:54;101121.09;;;16.20;70.74
6778;BME280;3426;52.244;10.534;2022-10-31T01:14:20;101115.03;;;16.17;70.93
6778;BME280;3426;52.244;10.534;2022-10-31T01:16:47;101119.28;;;16.20;71.11
6778;BME280;3426;52.244;10.534;2022-10-31T01:19:13;101123.91;;;16.18;71.16
6778;BME280;3426;52.244;10.534;2022-10-31T01:21:40;101126.25;;;16.23;70.53
6778;BME280;3426;52.244;10.534;2022-10-31T01:24:07;101126.66;;;16.16;71.29
6778;BME280;3426;52.244;10.534;2022-10-31T01:26:34;101123.38;;;16.13;71.20
6778;BME280;3426;52.244;10.534;2022-10-31T01:29:06;101123.91;;;16.05;71.83
6778;BME280;3426;52.244;10.534;2022-10-31T01:31:38;101132.25;;;16.01;71.64
6778;BME280;3426;52.244;10.534;2022-10-31T01:34:05;101135.66;;;15.90;72.13
6778;BME280;3426;52.244;10.534;2022-10-31T01:36:37;101137.66;;;15.99;71.78
6778;BME280;3426;52.244;10.534;2022-10-31T01:39:06;101129.66;;;15.99;71.62
6778;BME280;3426;52.244;10.534;2022-10-31T01:41:35;101129.25;;;16.05;71.89
6778;BME280;3426;52.244;10.534;2022-10-31T01:47:05;101137.66;;;15.99;71.68
6778;BME280;3426;52.244;10.534;2022-10-31T01:52:26;101139.72;;;16.08;71.49
6778;BME280;3426;52.244;10.534;2022-10-31T01:55:22;101141.66;;;16.06;71.48
6778;BME280;3426;52.244;10.534;2022-10-31T01:57:59;101145.78;;;16.10;71.46
6778;BME280;3426;52.244;10.534;2022-10-31T02:00:28;101141.22;;;16.12;71.56
6778;BME280;3426;52.244;10.534;2022-10-31T02:02:55;101151.91;;;16.12;71.55
6778;BME280;3426;52.244;10.534;2022-10-31T02:05:28;101145.59;;;16.01;71.52
6778;BME280;3426;52.244;10.534;2022-10-31T02:08:28;101147.19;;;16.16;71.23
6778;BME280;3426;52.244;10.534;2022-10-31T02:10:56;101160.75;;;16.26;70.56
6778;BME280;3426;52.244;10.534;2022-10-31T02:13:24;101153.59;;;16.26;71.03
6778;BME280;3426;52.244;10.534;2022-10-31T02:15:58;101163.56;;;16.24;71.20
6778;BME280;3426;52.244;10.534;2022-10-31T02:18:27;101160.03;;;16.24;71.06
6778;BME280;3426;52.244;10.534;2022-10-31T02:21:05;101167.50;;;16.31;70.51
6778;BME280;3426;52.244;10.534;2022-10-31T02:32:38;101171.13;;;16.43;69.81
6778;BME280;3426;52.244;10.534;2022-10-31T02:43:35;101172.84;;;16.44;69.52
6778;BME280;3426;52.244;10.534;2022-10-31T02:46:28;101183.31;;;16.47;69.56
6778;BME280;3426;52.244;10.534;2022-10-31T02:49:03;101188.44;;;16.37;70.40
6778;BME280;3426;52.244;10.534;2022-10-31T02:51:32;101180.97;;;16.30;70.82
6778;BME280;3426;52.244;10.534;2022-10-31T02:53:59;101181.38;;;16.49;69.80
6778;BME280;3426;52.244;10.534;2022-10-31T02:56:25;101184.59;;;16.54;70.05
6778;BME280;3426;52.244;10.534;2022-10-31T02:58:55;101189.50;;;16.60;69.89
6778;BME280;3426;52.244;10.534;2022-10-31T03:01:48;101182.25;;;16.62;70.00
6778;BME280;3426;52.244;10.534;2022-10-31T03:07:03;101184.56;;;16.67;70.01
6778;BME280;3426;52.244;10.534;2022-10-31T03:12:31;101195.38;;;16.78;69.98
6778;BME280;3426;52.244;10.534;2022-10-31T03:20:26;101193.56;;;16.79;70.34
6778;BME280;3426;52.244;10.534;2022-10-31T03:22:55;101189.81;;;16.56;70.60
6778;BME280;3426;52.244;10.534;2022-10-31T03:25:23;101200.22;;;16.86;70.10
6778;BME280;3426;52.244;10.534;2022-10-31T03:27:50;101199.53;;;16.95;69.92
6778;BME280;3426;52.244;10.534;2022-10-31T03:30:17;101201.25;;;16.96;69.50
6778;BME280;3426;52.244;10.534;2022-10-31T03:32:48;101203.69;;;16.99;69.49
6778;BME280;3426;52.244;10.534;2022-10-31T03:35:19;101198.34;;;16.99;69.73
6778;BME280;3426;52.244;10.534;2022-10-31T03:37:47;101204.97;;;17.06;69.40
6778;BME280;3426;52.244;10.534;2022-10-31T03:40:16;101202.00;;;16.98;69.52
6778;BME280;3426;52.244;10.534;2022-10-31T03:42:52;101202.22;;;16.69;70.69
6778;BME280;3426;52.244;10.534;2022-10-31T03:45:25;101207.69;;;16.68;71.26
6778;BME280;3426;52.244;10.534;2022-10-31T03:47:53;101205.66;;;16.84;69.82
6778;BME280;3426;52.244;10.534;2022-10-31T03:50:21;101202.97;;;16.84;69.96
6778;BME280;3426;52.244;10.534;2022-10-31T03:52:56;101203.63;;;16.88;69.71
6778;BME280;3426;52.244;10.534;2022-10-31T03:55:27;101200.31;;;16.72;70.42
6778;BME280;3426;52.244;10.534;2022-10-31T04:00:25;101198.63;;;16.71;70.78
6778;BME280;3426;52.244;10.534;2022-10-31T04:03:00;101208.09;;;16.62;71.31
6778;BME280;3426;52.244;10.534;2022-10-31T04:05:29;101205.34;;;16.63;71.23
6778;BME280;3426;52.244;10.534;2022-10-31T04:07:58;101217.44;;;16.69;70.88
6778;BME280;3426;52.244;10.534;2022-10-31T04:10:27;101214.66;;;16.58;71.55
6778;BME280;3426;52.244;10.534;2022-10-31T04:13:05;101213.78;;;16.70;71.07
6778;BME280;3426;52.244;10.534;2022-10-31T04:15:35;101216.78;;;16.53;71.74
6778;BME280;3426;52.244;10.534;2022-10-31T04:18:04;101214.13;;;16.53;71.89
6778;BME280;3426;52.244;10.534;2022-10-31T04:20:32;101225.25;;;16.59;71.47
6778;BME280;3426;52.244;10.534;2022-10-31T04:23:00;101230.38;;;16.62;71.53
6778;BME280;3426;52.244;10.534;2022-10-31T04:25:26;101224.81;;;16.53;71.82
6778;BME280;3426;52.244;10.534;2022-10-31T04:27:53;101220.72;;;16.09;74.05
6778;BME280;3426;52.244;10.534;2022-10-31T04:30:19;101224.38;;;16.33;73.13
6778;BME280;3426;52.244;10.534;2022-10-31T04:32:46;101233.78;;;16.39;72.77
6778;BME280;3426;52.244;10.534;2022-10-31T04:35:13;101231.88;;;16.41;72.63
6778;BME280;3426;52.244;10.534;2022-10-31T04:37:39;101232.06;;;16.38;72.97
6778;BME280;3426;52.244;10.534;2022-10-31T04:40:06;101234.75;;;16.38;73.14
6778;BME280;3426;52.244;10.534;2022-10-31T04:42:33;101225.34;;;16.20;73.91
6778;BME280;3426;52.244;10.534;2022-10-31T04:44:59;101231.00;;;16.28;73.82
6778;BME280;3426;52.244;10.534;2022-10-31T04:47:26;101236.44;;;16.26;74.25
6778;BME280;3426;52.244;10.534;2022-10-31T04:49:52;101237.97;;;16.17;74.31
6778;BME280;3426;52.244;10.534;2022-10-31T04:52:19;101245.50;;;15.71;76.76
6778;BME280;3426;52.244;10.534;2022-10-31T04:54:45;101243.78;;;15.97;75.63
6778;BME280;3426;52.244;10.534;2022-10-31T04:57:11;101240.41;;;16.21;74.31
6778;BME280;3426;52.244;10.534;2022-10-31T04:59:38;101237.31;;;16.27;74.57
6778;BME280;3426;52.244;10.534;2022-10-31T05:02:04;101237.41;;;16.25;74.03
6778;BME280;3426;52.244;10.534;2022-10-31T05:04:31;101236.13;;;16.18;74.49
6778;BME280;3426;52.244;10.534;2022-10-31T05:06:57;101237.00;;;16.19;74.27
6778;BME280;3426;52.244;10.534;2022-10-31T05:09:24;101237.19;;;16.15;74.45
6778;BME280;3426;52.244;10.534;2022-10-31T05:11:50;101235.72;;;16.11;74.78
6778;BME280;3426;52.244;10.534;2022-10-31T05:14:16;101242.94;;;16.09;74.65
6778;BME280;3426;52.244;10.534;2022-10-31T05:16:43;101239.13;;;16.13;74.05
6778;BME280;3426;52.244;10.534;2022-10-31T05:19:09;101241.25;;;16.08;74.47
6778;BME280;3426;52.244;10.534;2022-10-31T05:21:35;101244.03;;;16.07;74.41
6778;BME280;3426;52.244;10.534;2022-10-31T05:24:02;101246.03;;;16.03;74.47
6778;BME280;3426;52.244;10.534;2022-10-31T05:26:29;101242.75;;;16.00;74.75
6778;BME280;3426;52.244;10.534;2022-10-31T05:28:55;101233.97;;;15.98;74.62
6778;BME280;3426;52.244;10.534;2022-10-31T05:31:22;101242.59;;;15.88;74.69
6778;BME280;3426;52.244;10.534;2022-10-31T05:33:48;101247.00;;;15.62;76.19
6778;BME280;3426;52.244;10.534;2022-10-31T05:36:15;101244.16;;;15.66;76.62
6778;BME280;3426;52.244;10.534;2022-10-31T05:38:41;101244.91;;;15.80;75.34
6778;BME280;3426;52.244;10.534;2022-10-31T05:41:07;101237.56;;;15.84;75.40
6778;BME280;3426;52.244;10.534;2022-10-31T05:43:35;101239.06;;;15.88;74.60
6778;BME280;3426;52.244;10.534;2022-10-31T05:46:02;101237.00;;;15.79;74.65
6778;BME280;3426;52.244;10.534;2022-10-31T05:48:28;101246.06;;;15.76;74.47
6778;BME280;3426;52.244;10.534;2022-10-31T05:50:54;101243.50;;;15.75;74.79
6778;BME280;3426;52.244;10.534;2022-10-31T05:53:21;101236.88;;;15.68;75.11
6778;BME280;3426;52.244;10.534;2022-10-31T05:55:47;101244.22;;;15.64;75.21
6778;BME280;3426;52.244;10.534;2022-10-31T05:58:14;101235.34;;;15.63;75.06
6778;BME280;3426;52.244;10.534;2022-10-31T06:00:40;101237.25;;;15.61;75.32
6778;BME280;3426;52.244;10.534;2022-10-31T06:03:08;101244.59;;;15.58;75.30
6778;BME280;3426;52.244;10.534;2022-10-31T06:05:40;101247.94;;;15.61;74.88
6778;BME280;3426;52.244;10.534;2022-10-31T06:08:06;101253.47;;;15.58;74.92
6778;BME280;3426;52.244;10.534;2022-10-31T06:10:33;101263.56;;;15.53;75.22
6778;BME280;3426;52.244;10.534;2022-10-31T06:12:59;101266.47;;;15.50;75.65
6778;BME280;3426;52.244;10.534;2022-10-31T06:15:26;101258.63;;;15.47;75.34
6778;BME280;3426;52.244;10.534;2022-10-31T06:18:03;101256.38;;;15.41;75.17
6778;BME280;3426;52.244;10.534;2022-10-31T06:20:30;101254.84;;;15.37;74.99
6778;BME280;3426;52.244;10.534;2022-10-31T06:22:57;101259.81;;;15.43;75.17
6778;BME280;3426;52.244;10.534;2022-10-31T06:25:24;101267.25;;;15.38;74.99
6778;BME280;3426;52.244;10.534;2022-10-31T06:27:50;101267.34;;;15.36;74.87
6778;BME280;3426;52.244;10.534;2022-10-31T06:30:17;101274.75;;;15.46;74.27
6778;BME280;3426;52.244;10.534;2022-10-31T06:32:43;101271.53;;;15.41;74.30
6778;BME280;3426;52.244;10.534;2022-10-31T06:35:10;101273.16;;;15.43;74.58
6778;BME280;3426;52.244;10.534;2022-10-31T06:37:37;101272.38;;;15.41;74.59
6778;BME280;3426;52.244;10.534;2022-10-31T06:40:04;101280.22;;;15.30;74.60
6778;BME280;3426;52.244;10.534;2022-10-31T06:42:30;101289.00;;;15.32;75.03
6778;BME280;3426;52.244;10.534;2022-10-31T06:44:57;101288.13;;;15.31;74.86
6778;BME280;3426;52.244;10.534;2022-10-31T06:47:23;101287.66;;;15.25;75.08
6778;BME280;3426;52.244;10.534;2022-10-31T06:49:49;101288.13;;;15.31;74.77
6778;BME280;3426;52.244;10.534;2022-10-31T06:52:16;101290.72;;;15.33;75.05
6778;BME280;3426;52.244;10.534;2022-10-31T06:54:42;101287.19;;;15.32;75.18
6778;BME280;3426;52.244;10.534;2022-10-31T06:57:09;101294.03;;;15.36;75.74
6778;BME280;3426;52.244;10.534;2022-10-31T06:59:35;101308.06;;;15.26;75.21
6778;BME280;3426;52.244;10.534;2022-10-31T07:02:02;101306.16;;;15.28;75.68
6778;BME280;3426;52.244;10.534;2022-10-31T07:04:28;101310.72;;;15.26;76.56
6778;BME280;3426;52.244;10.534;2022-10-31T07:06:55;101307.09;;;15.41;76.28
6778;BME280;3426;52.244;10.534;2022-10-31T07:09:21;101300.59;;;15.45;76.45
6778;BME280;3426;52.244;10.534;2022-10-31T07:11:47;101299.63;;;15.60;76.21
6778;BME280;3426;52.244;10.534;2022-10-31T07:14:14;101305.16;;;15.72;75.49
6778;BME280;3426;52.244;10.534;2022-10-31T07:16:40;101304.41;;;15.82;75.92
6778;BME280;3426;52.244;10.534;2022-10-31T07:19:07;101317.69;;;15.84;76.30
6778;BME280;3426;52.244;10.534;2022-10-31T07:21:33;101306.16;;;15.83;76.12
6778;BME280;3426;52.244;10.534;2022-10-31T07:24:00;101313.66;;;15.91;75.70
6778;BME280;3426;52.244;10.534;2022-10-31T07:26:26;101307.06;;;15.97;75.74
6778;BME280;3426;52.244;10.534;2022-10-31T07:28:54;101309.63;;;15.98;75.56
6778;BME280;3426;52.244;10.534;2022-10-31T07:31:20;101310.25;;;15.89;76.17
6778;BME280;3426;52.244;10.534;2022-10-31T07:33:46;101309.53;;;16.00;77.18
6778;BME280;3426;52.244;10.534;2022-10-31T07:36:13;101308.38;;;16.16;76.37
6778;BME280;3426;52.244;10.534;2022-10-31T07:38:39;101308.19;;;16.20;76.84
6778;BME280;3426;52.244;10.534;2022-10-31T07:41:06;101308.31;;;16.31;76.14
6778;BME280;3426;52.244;10.534;2022-10-31T07:43:32;101300.06;;;16.21;77.21
6778;BME280;3426;52.244;10.534;2022-10-31T07:45:59;101307.16;;;16.48;76.85
6778;BME280;3426;52.244;10.534;2022-10-31T07:48:25;101299.69;;;16.65;75.94
6778;BME280;3426;52.244;10.534;2022-10-31T07:50:52;101297.38;;;16.74;76.12
6778;BME280;3426;52.244;10.534;2022-10-31T07:53:18;101304.84;;;16.94;76.00
6778;BME280;3426;52.244;10.534;2022-10-31T07:55:44;101300.81;;;16.76;77.23
6778;BME280;3426;52.244;10.534;2022-10-31T07:58:13;101296.38;;;17.00;76.82
6778;BME280;3426;52.244;10.534;2022-10-31T08:00:42;101294.88;;;17.21;76.23
6778;BME280;3426;52.244;10.534;2022-10-31T08:03:12;101289.03;;;16.91;75.93
6778;BME280;3426;52.244;10.534;2022-10-31T08:05:38;101289.72;;;17.18;75.33
6778;BME280;3426;52.244;10.534;2022-10-31T08:08:08;101295.59;;;17.23;75.46
6778;BME280;3426;52.244;10.534;2022-10-31T08:10:35;101299.50;;;16.94;76.99
6778;BME280;3426;52.244;10.534;2022-10-31T08:13:08;101297.22;;;17.26;75.96
6778;BME280;3426;52.244;10.534;2022-10-31T08:15:35;101306.25;;;17.49;74.77
6778;BME280;3426;52.244;10.534;2022-10-31T08:18:05;101309.34;;;17.56;74.18
6778;BME280;3426;52.244;10.534;2022-10-31T08:20:32;101307.31;;;17.59;73.70
6778;BME280;3426;52.244;10.534;2022-10-31T08:23:03;101314.97;;;17.64;73.81
6778;BME280;3426;52.244;10.534;2022-10-31T08:25:32;101321.31;;;17.76;74.01
6778;BME280;3426;52.244;10.534;2022-10-31T08:28:04;101320.75;;;17.70;74.58
6778;BME280;3426;52.244;10.534;2022-10-31T08:30:32;101313.31;;;17.50;75.51
6778;BME280;3426;52.244;10.534;2022-10-31T08:33:01;101315.63;;;17.67;74.86
6778;BME280;3426;52.244;10.534;2022-10-31T08:35:28;101316.03;;;17.74;74.71
6778;BME280;3426;52.244;10.534;2022-10-31T08:37:55;101315.19;;;17.73;74.71
6778;BME280;3426;52.244;10.534;2022-10-31T08:40:23;101317.75;;;17.38;76.26
6778;BME280;3426;52.244;10.534;2022-10-31T08:46:18;101313.78;;;18.05;74.35
6778;BME280;3426;52.244;10.534;2022-10-31T08:48:48;101309.22;;;17.57;76.62
6778;BME280;3426;52.244;10.534;2022-10-31T08:51:15;101305.69;;;17.57;76.80
6778;BME280;3426;52.244;10.534;2022-10-31T08:53:41;101302.28;;;18.26;74.20
6778;BME280;3426;52.244;10.534;2022-10-31T08:56:08;101302.56;;;18.35;73.59
6778;BME280;3426;52.244;10.534;2022-10-31T08:58:34;101290.53;;;18.51;72.59
6778;BME280;3426;52.244;10.534;2022-10-31T09:01:05;101290.53;;;18.51;72.93
6778;BME280;3426;52.244;10.534;2022-10-31T09:03:32;101290.63;;;18.39;73.55
6778;BME280;3426;52.244;10.534;2022-10-31T09:06:00;101285.06;;;18.64;73.44
6778;BME280;3426;52.244;10.534;2022-10-31T09:08:29;101295.34;;;18.93;71.69
6778;BME280;3426;52.244;10.534;2022-10-31T09:10:57;101288.28;;;18.92;70.89
6778;BME280;3426;52.244;10.534;2022-10-31T09:13:23;101285.09;;;18.98;70.24
6778;BME280;3426;52.244;10.534;2022-10-31T09:15:53;101295.72;;;18.42;72.11
6778;BME280;3426;52.244;10.534;2022-10-31T09:18:21;101289.47;;;18.76;71.33
6778;BME280;3426;52.244;10.534;2022-10-31T09:20:49;101287.56;;;19.23;70.49
6778;BME280;3426;52.244;10.534;2022-10-31T09:23:18;101295.47;;;19.58;70.52
6778;BME280;3426;52.244;10.534;2022-10-31T09:25:47;101288.88;;;19.40;68.89
6778;BME280;3426;52.244;10.534;2022-10-31T09:28:18;101289.09;;;19.37;68.30
6778;BME280;3426;52.244;10.534;2022-10-31T09:30:49;101280.69;;;19.30;69.56
6778;BME280;3426;52.244;10.534;2022-10-31T09:33:16;101275.25;;;20.28;66.47
6778;BME280;3426;52.244;10.534;2022-10-31T09:35:43;101265.41;;;20.38;64.27
6778;BME280;3426;52.244;10.534;2022-10-31T09:38:12;101272.44;;;20.30;65.15
6778;BME280;3426;52.244;10.534;2022-10-31T09:51:42;101268.94;;;21.71;58.59
6778;BME280;3426;52.244;10.534;2022-10-31T09:54:19;101262.22;;;21.36;59.09
6778;BME280;3426;52.244;10.534;2022-10-31T09:56:47;101258.25;;;21.00;60.73
6778;BME280;3426;52.244;10.534;2022-10-31T09:59:30;101262.41;;;21.14;60.08
6778;BME280;3426;52.244;10.534;2022-10-31T10:04:49;101254.22;;;19.80;64.33
6778;BME280;3426;52.244;10.534;2022-10-31T10:07:43;101263.47;;;20.20;63.22
6778;BME280;3426;52.244;10.534;2022-10-31T10:10:36;101265.31;;;20.61;62.19
6778;BME280;3426;52.244;10.534;2022-10-31T10:18:55;101260.28;;;19.94;64.09
6778;BME280;3426;52.244;10.534;2022-10-31T10:26:41;101258.09;;;20.20;63.61
6778;BME280;3426;52.244;10.534;2022-10-31T10:31:55;101251.38;;;20.35;63.49
6778;BME280;3426;52.244;10.534;2022-10-31T10:34:30;101249.00;;;20.42;63.19
6778;BME280;3426;52.244;10.534;2022-10-31T10:37:03;101248.56;;;20.36;63.40
6778;BME280;3426;52.244;10.534;2022-10-31T10:39:36;101249.28;;;19.53;65.87
6778;BME280;3426;52.244;10.534;2022-10-31T10:42:40;101237.13;;;20.02;64.67
6778;BME280;3426;52.244;10.534;2022-10-31T10:45:28;101238.72;;;20.05;64.27
6778;BME280;3426;52.244;10.534;2022-10-31T10:48:35;101235.47;;;19.58;65.96
6778;BME280;3426;52.244;10.534;2022-10-31T10:51:06;101235.72;;;19.44;67.21
6778;BME280;3426;52.244;10.534;2022-10-31T10:57:46;101223.34;;;19.75;66.21
6778;BME280;3426;52.244;10.534;2022-10-31T11:02:50;101211.78;;;19.84;65.91
6778;BME280;3426;52.244;10.534;2022-10-31T11:05:36;101207.13;;;19.65;66.71
6778;BME280;3426;52.244;10.534;2022-10-31T11:08:05;101219.41;;;19.36;67.01
6778;BME280;3426;52.244;10.534;2022-10-31T11:10:32;101201.38;;;19.91;65.64
6778;BME280;3426;52.244;10.534;2022-10-31T11:16:00;101206.41;;;19.63;66.06
6778;BME280;3426;52.244;10.534;2022-10-31T11:18:30;101205.00;;;20.22;64.05
6778;BME280;3426;52.244;10.534;2022-10-31T11:20:59;101209.06;;;20.16;63.16
6778;BME280;3426;52.244;10.534;2022-10-31T11:23:28;101201.84;;;20.37;63.16
6778;BME280;3426;52.244;10.534;2022-10-31T11:26:05;101195.63;;;20.16;62.39
6778;BME280;3426;52.244;10.534;2022-10-31T11:28:33;101192.53;;;20.00;62.82
6778;BME280;3426;52.244;10.534;2022-10-31T11:31:07;101190.03;;;20.08;61.98
6778;BME280;3426;52.244;10.534;2022-10-31T11:36:04;101181.44;;;19.72;63.53
6778;BME280;3426;52.244;10.534;2022-10-31T11:38:41;101172.72;;;20.01;62.84
6778;BME280;3426;52.244;10.534;2022-10-31T11:41:14;101175.75;;;19.87;63.20
6778;BME280;3426;52.244;10.534;2022-10-31T11:43:49;101178.94;;;19.59;64.38
6778;BME280;3426;52.244;10.534;2022-10-31T11:49:05;101172.09;;;20.08;64.49
6778;BME280;3426;52.244;10.534;2022-10-31T11:51:33;101168.28;;;20.42;63.31
6778;BME280;3426;52.244;10.534;2022-10-31T11:54:02;101170.44;;;20.17;63.61
6778;BME280;3426;52.244;10.534;2022-10-31T11:56:40;101169.50;;;19.65;65.58
6778;BME280;3426;52.244;10.534;2022-10-31T11:59:18;101165.19;;;19.95;64.28
6778;BME280;3426;52.244;10.534;2022-10-31T12:01:51;101163.56;;;20.03;64.63
6778;BME280;3426;52.244;10.534;2022-10-31T12:04:41;101157.78;;;19.87;65.67
6778;BME280;3426;52.244;10.534;2022-10-31T12:07:11;101162.09;;;20.20;64.24
6778;BME280;3426;52.244;10.534;2022-10-31T12:09:38;101159.50;;;20.39;63.09
6778;BME280;3426;52.244;10.534;2022-10-31T12:17:45;101153.91;;;20.01;65.50
6778;BME280;3426;52.244;10.534;2022-10-31T12:36:41;101140.88;;;20.48;64.21
6778;BME280;3426;52.244;10.534;2022-10-31T12:53:19;101115.63;;;20.79;62.95
6778;BME280;3426;52.244;10.534;2022-10-31T12:56:16;101109.69;;;19.63;67.47
6778;BME280;3426;52.244;10.534;2022-10-31T12:58:51;101110.78;;;19.81;67.10
6778;BME280;3426;52.244;10.534;2022-10-31T13:04:03;101109.81;;;20.74;63.53
6778;BME280;3426;52.244;10.534;2022-10-31T13:06:38;101101.03;;;20.72;63.38
6778;BME280;3426;52.244;10.534;2022-10-31T13:09:15;101094.41;;;20.96;62.65
6778;BME280;3426;52.244;10.534;2022-10-31T13:11:47;101090.56;;;20.98;61.43
6778;BME280;3426;52.244;10.534;2022-10-31T13:14:28;101088.97;;;20.36;61.68
6778;BME280;3426;52.244;10.534;2022-10-31T13:16:56;101086.31;;;19.84;62.22
6778;BME280;3426;52.244;10.534;2022-10-31T13:19:36;101081.38;;;19.48;63.35
6778;BME280;3426;52.244;10.534;2022-10-31T13:22:08;101078.53;;;19.81;61.35
6778;BME280;3426;52.244;10.534;2022-10-31T13:24:43;101085.56;;;19.41;62.32
6778;BME280;3426;52.244;10.534;2022-10-31T13:30:20;101077.03;;;20.50;58.79
6778;BME280;3426;52.244;10.534;2022-10-31T13:35:22;101069.94;;;19.46;62.21
6778;BME280;3426;52.244;10.534;2022-10-31T13:38:18;101061.78;;;19.36;62.46
6778;BME280;3426;52.244;10.534;2022-10-31T13:40:56;101057.50;;;19.96;60.56
6778;BME280;3426;52.244;10.534;2022-10-31T13:46:24;101051.38;;;19.43;62.09
6778;BME280;3426;52.244;10.534;2022-10-31T13:48:51;101056.09;;;20.23;59.61
6778;BME280;3426;52.244;10.534;2022-10-31T13:51:29;101049.34;;;19.98;60.59
6778;BME280;3426;52.244;10.534;2022-10-31T13:54:00;101040.66;;;19.11;63.29
6778;BME280;3426;52.244;10.534;2022-10-31T13:56:32;101037.00;;;18.79;65.37
6778;BME280;3426;52.244;10.534;2022-10-31T14:01:35;101030.31;;;19.27;64.03
6778;BME280;3426;52.244;10.534;2022-10-31T14:04:14;101021.25;;;19.60;63.62
6778;BME280;3426;52.244;10.534;2022-10-31T14:09:29;101018.75;;;19.26;64.50
6778;BME280;3426;52.244;10.534;2022-10-31T14:12:01;101024.13;;;18.94;66.10
6778;BME280;3426;52.244;10.534;2022-10-31T14:14:32;101025.84;;;19.69;64.11
6778;BME280;3426;52.244;10.534;2022-10-31T14:17:00;101023.00;;;19.71;63.42
6778;BME280;3426;52.244;10.534;2022-10-31T14:19:27;101027.13;;;20.05;62.28
6778;BME280;3426;52.244;10.534;2022-10-31T14:21:54;101019.38;;;20.12;62.39
6778;BME280;3426;52.244;10.534;2022-10-31T14:26:58;101011.41;;;19.70;63.75
6778;BME280;3426;52.244;10.534;2022-10-31T14:29:31;101012.88;;;19.74;64.48
6778;BME280;3426;52.244;10.534;2022-10-31T14:34:39;100996.50;;;19.87;64.56
6778;BME280;3426;52.244;10.534;2022-10-31T14:45:43;101004.88;;;19.94;64.29
6778;BME280;3426;52.244;10.534;2022-10-31T14:51:03;100994.00;;;19.65;64.73
6778;BME280;3426;52.244;10.534;2022-10-31T14:53:56;101002.44;;;20.21;63.27
6778;BME280;3426;52.244;10.534;2022-10-31T14:58:54;101006.88;;;20.01;64.06
6778;BME280;3426;52.244;10.534;2022-10-31T15:01:25;100998.53;;;18.90;68.21
6778;BME280;3426;52.244;10.534;2022-10-31T15:03:53;100993.72;;;19.26;67.51
6778;BME280;3426;52.244;10.534;2022-10-31T15:06:42;101001.66;;;19.69;65.80
6778;BME280;3426;52.244;10.534;2022-10-31T15:09:30;100995.75;;;19.54;66.72
6778;BME280;3426;52.244;10.534;2022-10-31T15:12:01;100990.34;;;20.06;64.93
6778;BME280;3426;52.244;10.534;2022-10-31T15:14:42;100988.59;;;19.44;67.27
6778;BME280;3426;52.244;10.534;2022-10-31T15:17:11;100990.09;;;19.78;65.48
6778;BME280;3426;52.244;10.534;2022-10-31T15:19:38;100983.16;;;19.55;66.77
6778;BME280;3426;52.244;10.534;2022-10-31T15:22:05;100989.06;;;19.70;66.25
6778;BME280;3426;52.244;10.534;2022-10-31T15:24:36;100984.38;;;19.93;65.45
6778;BME280;3426;52.244;10.534;2022-10-31T15:27:05;100983.41;;;19.73;65.97
6778;BME280;3426;52.244;10.534;2022-10-31T15:29:31;100983.56;;;19.71;66.15
6778;BME280;3426;52.244;10.534;2022-10-31T15:32:00;100979.97;;;19.61;66.46
6778;BME280;3426;52.244;10.534;2022-10-31T15:34:39;100980.78;;;19.82;66.07
6778;BME280;3426;52.244;10.534;2022-10-31T15:37:11;100978.19;;;19.71;66.59
6778;BME280;3426;52.244;10.534;2022-10-31T15:39:38;100978.78;;;19.54;66.83
6778;BME280;3426;52.244;10.534;2022-10-31T15:44:43;100972.25;;;19.56;67.22
6778;BME280;3426;52.244;10.534;2022-10-31T15:47:16;100959.41;;;19.29;68.62
6778;BME280;3426;52.244;10.534;2022-10-31T15:49:54;100962.19;;;19.49;67.82
6778;BME280;3426;52.244;10.534;2022-10-31T15:52:41;100959.06;;;19.02;70.00